createdAt,value
2018-11-21T00:00:12.389Z,2.31
2018-11-21T00:02:41.008Z,2.19
2018-11-21T00:05:09.654Z,2.51
2018-11-21T00:07:38.377Z,2.34
2018-11-21T00:10:09.525Z,2.22
2018-11-21T00:12:38.926Z,2.37
2018-11-21T00:15:09.403Z,2.22
2018-11-21T00:17:38.113Z,2.23
2018-11-21T00:20:08.266Z,2.34
2018-11-21T00:22:36.809Z,2.37
2018-11-21T00:25:05.626Z,2.25
2018-11-21T00:27:34.258Z,2.19
2018-11-21T00:30:02.983Z,2.28
2018-11-21T00:32:31.688Z,2.20
2018-11-21T00:35:00.440Z,2.19
2018-11-21T00:37:29.136Z,2.21
2018-11-21T00:39:57.801Z,2.12
2018-11-21T00:42:26.637Z,2.24
2018-11-21T00:44:55.320Z,2.12
2018-11-21T00:47:23.998Z,2.23
2018-11-21T00:49:52.642Z,2.45
2018-11-21T00:52:21.251Z,2.35
2018-11-21T00:54:49.928Z,2.18
2018-11-21T00:57:18.518Z,2.22
2018-11-21T00:59:47.152Z,2.08
2018-11-21T01:02:15.814Z,2.18
2018-11-21T01:04:44.444Z,2.30
2018-11-21T01:07:13.025Z,2.10
2018-11-21T01:09:41.714Z,2.06
2018-11-21T01:12:10.320Z,2.04
2018-11-21T01:14:39.065Z,2.15
2018-11-21T01:17:07.784Z,2.11
2018-11-21T01:19:36.504Z,2.14
2018-11-21T01:22:05.338Z,2.05
2018-11-21T01:24:33.981Z,2.04
2018-11-21T01:27:02.672Z,2.04
2018-11-21T01:29:31.465Z,2.17
2018-11-21T01:32:00.143Z,2.10
2018-11-21T01:34:29.078Z,2.08
2018-11-21T01:36:57.702Z,2.09
2018-11-21T01:39:26.372Z,2.03
2018-11-21T01:41:55.081Z,2.14
2018-11-21T01:44:23.774Z,1.98
2018-11-21T01:46:52.467Z,2.07
2018-11-21T01:49:21.082Z,2.35
2018-11-21T01:51:49.676Z,2.20
2018-11-21T01:54:18.379Z,2.08
2018-11-21T01:56:47.101Z,1.98
2018-11-21T01:59:15.788Z,2.05
2018-11-21T02:01:44.473Z,1.97
2018-11-21T02:04:13.118Z,1.93
2018-11-21T02:06:41.796Z,1.85
2018-11-21T02:09:11.984Z,2.04
2018-11-21T02:11:40.587Z,2.10
2018-11-21T02:14:09.324Z,1.92
2018-11-21T02:16:38.021Z,1.91
2018-11-21T02:19:07.115Z,2.20
2018-11-21T02:21:35.811Z,1.90
2018-11-21T02:24:04.488Z,1.98
2018-11-21T02:26:33.142Z,1.93
2018-11-21T02:29:01.805Z,2.00
2018-11-21T02:31:30.421Z,2.17
2018-11-21T02:33:59.127Z,1.91
2018-11-21T02:36:27.927Z,1.87
2018-11-21T02:38:56.574Z,1.84
2018-11-21T02:41:25.288Z,1.82
2018-11-21T02:43:54.188Z,1.94
2018-11-21T02:46:22.865Z,1.79
2018-11-21T02:48:51.745Z,1.81
2018-11-21T02:51:20.441Z,1.80
2018-11-21T02:53:49.085Z,1.66
2018-11-21T02:56:17.712Z,1.84
2018-11-21T02:58:46.416Z,1.76
2018-11-21T03:01:15.107Z,1.87
2018-11-21T03:03:43.773Z,1.81
2018-11-21T03:06:12.454Z,1.85
2018-11-21T03:08:41.140Z,1.85
2018-11-21T03:11:09.777Z,1.86
2018-11-21T03:13:38.477Z,1.82
2018-11-21T03:16:07.156Z,1.76
2018-11-21T03:18:35.988Z,1.77
2018-11-21T03:21:04.670Z,1.84
2018-11-21T03:23:33.338Z,1.92
2018-11-21T03:26:01.987Z,1.80
2018-11-21T03:28:30.727Z,1.94
2018-11-21T03:30:59.375Z,1.79
2018-11-21T03:33:28.102Z,1.74
2018-11-21T03:35:56.768Z,1.71
2018-11-21T03:38:25.575Z,1.66
2018-11-21T03:40:54.264Z,1.83
2018-11-21T03:43:22.880Z,1.67
2018-11-21T03:45:51.491Z,1.73
2018-11-21T03:48:20.216Z,1.83
2018-11-21T03:50:48.862Z,1.77
2018-11-21T03:53:17.582Z,1.69
2018-11-21T03:55:46.223Z,1.66
2018-11-21T03:58:14.893Z,1.62
2018-11-21T04:00:43.473Z,1.68
2018-11-21T04:03:12.634Z,1.65
2018-11-21T04:05:41.322Z,1.58
2018-11-21T04:08:10.007Z,1.59
2018-11-21T04:10:38.692Z,1.78
2018-11-21T04:13:07.381Z,1.69
2018-11-21T04:15:36.014Z,1.68
2018-11-21T04:18:05.157Z,1.61
2018-11-21T04:20:33.846Z,1.50
2018-11-21T04:23:02.516Z,1.57
2018-11-21T04:25:31.178Z,1.42
2018-11-21T04:27:59.903Z,1.40
2018-11-21T04:30:28.627Z,1.50
2018-11-21T04:32:57.341Z,1.55
2018-11-21T04:35:26.065Z,1.61
2018-11-21T04:37:54.685Z,1.62
2018-11-21T04:40:23.308Z,1.62
2018-11-21T04:42:51.982Z,1.56
2018-11-21T04:45:20.701Z,1.57
2018-11-21T04:47:49.372Z,1.56
2018-11-21T04:50:18.070Z,1.70
2018-11-21T04:52:47.057Z,1.65
2018-11-21T04:55:15.759Z,1.70
2018-11-21T04:57:44.450Z,1.52
2018-11-21T05:04:11.577Z,1.55
2018-11-21T05:06:40.269Z,1.50
2018-11-21T05:09:10.829Z,1.77
2018-11-21T05:11:39.515Z,1.66
2018-11-21T05:14:08.200Z,1.59
2018-11-21T05:16:36.832Z,1.72
2018-11-21T05:19:05.747Z,1.65
2018-11-21T05:21:34.460Z,1.46
2018-11-21T05:24:03.110Z,1.68
2018-11-21T05:26:32.036Z,1.60
2018-11-21T05:29:00.682Z,1.79
2018-11-21T05:31:29.763Z,1.54
2018-11-21T05:33:58.342Z,1.49
2018-11-21T05:36:27.006Z,1.45
2018-11-21T05:38:55.621Z,1.69
2018-11-21T05:41:24.360Z,1.59
2018-11-21T05:43:52.997Z,1.81
2018-11-21T05:46:21.684Z,1.58
2018-11-21T05:48:50.310Z,1.61
2018-11-21T05:51:18.897Z,1.66
2018-11-21T05:53:47.573Z,1.74
2018-11-21T05:56:16.184Z,1.68
2018-11-21T05:58:44.715Z,1.74
2018-11-21T06:01:13.749Z,1.75
2018-11-21T06:03:42.425Z,1.70
2018-11-21T06:06:11.055Z,1.70
2018-11-21T06:08:39.700Z,1.68
2018-11-21T06:11:08.380Z,1.71
2018-11-21T06:13:37.064Z,1.83
2018-11-21T06:16:06.139Z,1.81
2018-11-21T06:18:34.747Z,1.58
2018-11-21T06:21:03.447Z,1.73
2018-11-21T06:23:32.114Z,1.76
2018-11-21T06:26:00.894Z,1.70
2018-11-21T06:28:29.512Z,1.62
2018-11-21T06:30:58.283Z,1.65
2018-11-21T06:33:26.958Z,1.67
2018-11-21T06:35:55.615Z,1.74
2018-11-21T06:38:24.273Z,1.67
2018-11-21T06:40:52.973Z,1.78
2018-11-21T06:43:21.588Z,1.81
2018-11-21T06:45:50.265Z,1.85
2018-11-21T06:48:18.975Z,1.68
2018-11-21T06:50:47.606Z,1.85
2018-11-21T06:53:16.193Z,1.83
2018-11-21T06:55:44.863Z,2.04
2018-11-21T06:58:13.512Z,1.88
2018-11-21T07:00:42.148Z,1.78
2018-11-21T07:03:10.776Z,1.89
2018-11-21T07:05:39.451Z,1.72
2018-11-21T07:08:08.160Z,1.88
2018-11-21T07:10:36.836Z,1.82
2018-11-21T07:13:10.996Z,1.77
2018-11-21T07:15:34.565Z,1.89
2018-11-21T07:18:03.204Z,2.04
2018-11-21T07:20:31.843Z,1.94
2018-11-21T07:23:00.412Z,1.98
2018-11-21T07:25:29.109Z,1.92
2018-11-21T07:27:57.704Z,1.85
2018-11-21T07:30:26.429Z,1.86
2018-11-21T07:32:55.049Z,1.83
2018-11-21T07:35:23.693Z,2.03
2018-11-21T07:37:52.313Z,1.93
2018-11-21T07:40:20.931Z,1.92
2018-11-21T07:42:49.600Z,1.89
2018-11-21T07:45:18.324Z,1.79
2018-11-21T07:47:47.021Z,2.07
2018-11-21T07:50:17.231Z,1.88
2018-11-21T07:52:45.927Z,1.86
2018-11-21T07:55:14.913Z,1.85
2018-11-21T07:57:45.132Z,1.95
2018-11-21T08:00:50.842Z,1.81
2018-11-21T08:03:19.872Z,2.01
2018-11-21T08:05:53.907Z,1.86
2018-11-21T08:08:47.402Z,2.02
2018-11-21T08:11:37.879Z,1.81
2018-11-21T08:14:24.264Z,1.92
2018-11-21T08:17:07.613Z,1.79
2018-11-21T08:19:53.900Z,1.87
2018-11-21T08:22:47.591Z,2.00
2018-11-21T08:25:33.869Z,1.98
2018-11-21T08:28:20.267Z,1.88
2018-11-21T08:30:50.493Z,1.91
2018-11-21T08:33:19.527Z,2.02
2018-11-21T08:35:48.223Z,2.17
2018-11-21T08:38:17.127Z,1.90
2018-11-21T08:40:46.139Z,1.89
2018-11-21T08:43:14.836Z,2.15
2018-11-21T08:45:43.523Z,2.19
2018-11-21T08:48:12.825Z,1.93
2018-11-21T08:50:41.525Z,1.85
2018-11-21T08:53:10.122Z,1.85
2018-11-21T08:55:38.877Z,1.92
2018-11-21T08:58:08.282Z,1.87
2018-11-21T09:00:36.960Z,1.93
2018-11-21T09:03:06.485Z,2.03
2018-11-21T09:05:35.117Z,2.08
2018-11-21T09:08:04.415Z,2.01
2018-11-21T09:13:00.908Z,1.93
2018-11-21T09:15:29.595Z,1.96
2018-11-21T09:17:58.225Z,2.10
2018-11-21T09:20:26.926Z,2.22
2018-11-21T09:22:55.684Z,2.13
2018-11-21T09:25:24.302Z,2.14
2018-11-21T09:27:52.992Z,2.12
2018-11-21T09:30:22.509Z,1.99
2018-11-21T09:32:52.647Z,2.34
2018-11-21T09:35:21.333Z,2.50
2018-11-21T09:37:49.953Z,2.56
2018-11-21T09:40:22.388Z,2.37
2018-11-21T09:42:52.383Z,2.10
2018-11-21T09:45:22.016Z,2.28
2018-11-21T09:47:50.703Z,2.33
2018-11-21T09:50:24.189Z,2.30
2018-11-21T09:52:52.783Z,2.13
2018-11-21T09:55:21.430Z,2.65
2018-11-21T09:57:50.134Z,2.47
2018-11-21T10:00:55.298Z,2.50
2018-11-21T10:03:29.166Z,2.32
2018-11-21T10:06:21.542Z,2.40
2018-11-21T10:09:00.639Z,2.41
2018-11-21T10:11:30.170Z,2.04
2018-11-21T10:13:58.982Z,2.01
2018-11-21T10:16:27.755Z,2.30
2018-11-21T10:18:57.535Z,2.17
2018-11-21T10:21:27.672Z,2.43
2018-11-21T10:23:56.300Z,2.34
2018-11-21T10:26:25.188Z,2.36
2018-11-21T10:28:54.362Z,2.44
2018-11-21T10:31:23.357Z,2.32
2018-11-21T10:33:51.988Z,2.59
2018-11-21T10:36:20.722Z,2.32
2018-11-21T10:38:49.345Z,2.41
2018-11-21T10:41:17.926Z,2.32
2018-11-21T10:43:46.527Z,2.17
2018-11-21T10:46:15.366Z,2.37
2018-11-21T10:48:44.012Z,2.09
2018-11-21T10:51:13.913Z,2.22
2018-11-21T10:53:41.453Z,2.07
2018-11-21T10:56:10.102Z,2.18
2018-11-21T10:58:38.788Z,2.24
2018-11-21T11:01:25.293Z,2.47
2018-11-21T11:03:59.916Z,2.19
2018-11-21T11:06:46.524Z,1.99
2018-11-21T11:09:43.028Z,2.19
2018-11-21T11:12:48.868Z,2.22
2018-11-21T11:15:55.028Z,1.91
2018-11-21T11:18:52.862Z,2.12
2018-11-21T11:21:40.584Z,1.92
2018-11-21T11:24:28.315Z,2.11
2018-11-21T11:27:21.739Z,2.22
2018-11-21T11:30:12.461Z,2.25
2018-11-21T11:33:12.267Z,2.21
2018-11-21T11:35:51.851Z,2.27
2018-11-21T11:38:38.035Z,2.10
2018-11-21T11:41:24.336Z,2.40
2018-11-21T11:44:23.765Z,2.13
2018-11-21T11:47:05.126Z,2.19
2018-11-21T11:49:44.257Z,2.05
2018-11-21T11:52:32.927Z,2.22
2018-11-21T11:55:29.502Z,2.16
2018-11-21T11:58:29.079Z,2.20
2018-11-21T12:01:25.492Z,2.09
2018-11-21T12:04:16.273Z,2.08
2018-11-21T12:07:03.027Z,2.22
2018-11-21T12:09:49.306Z,2.34
2018-11-21T12:12:40.085Z,2.54
2018-11-21T12:15:22.210Z,2.45
2018-11-21T12:18:08.952Z,2.42
2018-11-21T12:21:02.563Z,2.29
2018-11-21T12:23:49.197Z,2.31
2018-11-21T12:26:35.686Z,2.36
2018-11-21T12:29:26.404Z,2.28
2018-11-21T12:32:12.700Z,2.37
2018-11-21T12:34:59.283Z,2.78
2018-11-21T12:37:41.437Z,2.32
2018-11-21T12:40:27.681Z,2.39
2018-11-21T12:43:14.623Z,2.27
2018-11-21T12:46:01.223Z,2.21
2018-11-21T12:49:01.120Z,2.48
2018-11-21T12:51:54.915Z,2.47
2018-11-21T12:54:57.699Z,2.43
2018-11-21T12:57:51.471Z,2.35
2018-11-21T13:00:41.960Z,2.44
2018-11-21T13:03:28.268Z,2.27
2018-11-21T13:06:18.765Z,2.27
2018-11-21T13:09:07.285Z,2.25
2018-11-21T13:11:53.754Z,2.68
2018-11-21T13:14:56.310Z,2.31
2018-11-21T13:17:42.608Z,2.33
2018-11-21T13:20:32.072Z,2.25
2018-11-21T13:23:31.878Z,2.21
2018-11-21T13:26:20.750Z,2.42
2018-11-21T13:28:59.775Z,2.43
2018-11-21T13:31:46.376Z,2.28
2018-11-21T13:34:40.315Z,2.48
2018-11-21T13:37:28.047Z,2.29
2018-11-21T13:40:18.995Z,2.47
2018-11-21T13:43:12.708Z,2.52
2018-11-21T13:45:52.819Z,2.54
2018-11-21T13:48:40.558Z,2.25
2018-11-21T13:51:31.270Z,2.51
2018-11-21T13:54:17.864Z,2.53
2018-11-21T13:56:47.867Z,2.38
2018-11-21T13:59:16.564Z,2.25
2018-11-21T14:01:45.312Z,2.36
2018-11-21T14:04:13.886Z,2.36
2018-11-21T14:06:42.520Z,2.43
2018-11-21T14:09:12.746Z,2.32
2018-11-21T14:11:41.426Z,2.36
2018-11-21T14:14:10.577Z,2.29
2018-11-21T14:16:39.312Z,2.35
2018-11-21T14:19:07.954Z,2.11
2018-11-21T14:21:36.784Z,2.34
2018-11-21T14:24:07.761Z,2.15
2018-11-21T14:26:36.440Z,2.41
2018-11-21T14:29:05.087Z,2.09
2018-11-21T14:31:33.783Z,2.07
2018-11-21T14:34:02.407Z,2.30
2018-11-21T14:36:31.164Z,2.40
2018-11-21T14:38:59.776Z,2.41
2018-11-21T14:41:28.473Z,2.04
2018-11-21T14:43:57.105Z,2.25
2018-11-21T14:46:26.081Z,2.11
2018-11-21T14:48:54.888Z,2.06
2018-11-21T14:51:23.569Z,1.95
2018-11-21T14:53:52.181Z,1.85
2018-11-21T14:56:20.794Z,2.19
2018-11-21T14:58:49.375Z,2.03
2018-11-21T15:01:18.108Z,1.93
2018-11-21T15:03:46.730Z,1.85
2018-11-21T15:06:15.434Z,1.91
2018-11-21T15:08:44.269Z,1.81
2018-11-21T15:11:12.906Z,1.94
2018-11-21T15:13:41.647Z,1.90
2018-11-21T15:16:10.330Z,1.89
2018-11-21T15:18:39.013Z,1.99
2018-11-21T15:21:07.658Z,1.95
2018-11-21T15:23:36.280Z,1.95
2018-11-21T15:26:05.078Z,1.93
2018-11-21T15:28:33.759Z,1.72
2018-11-21T15:31:02.531Z,1.81
2018-11-21T15:33:31.207Z,1.84
2018-11-21T15:35:59.913Z,1.84
2018-11-21T15:38:28.570Z,1.91
2018-11-21T15:40:57.226Z,1.91
2018-11-21T15:43:25.848Z,1.95
2018-11-21T15:45:54.660Z,1.98
2018-11-21T15:48:23.320Z,1.86
2018-11-21T15:50:52.029Z,1.95
2018-11-21T15:53:20.675Z,2.05
2018-11-21T15:55:49.239Z,1.88
2018-11-21T15:58:17.816Z,1.82
2018-11-21T16:00:46.567Z,1.79
2018-11-21T16:03:15.254Z,1.73
2018-11-21T16:05:43.906Z,1.77
2018-11-21T16:08:12.569Z,1.67
2018-11-21T16:10:42.837Z,1.59
2018-11-21T16:13:11.473Z,1.60
2018-11-21T16:15:44.928Z,1.71
2018-11-21T16:18:13.993Z,1.92
2018-11-21T16:20:42.682Z,1.76
2018-11-21T16:23:11.324Z,1.65
2018-11-21T16:25:39.977Z,1.84
2018-11-21T16:28:08.765Z,1.65
2018-11-21T16:30:37.407Z,1.76
2018-11-21T16:33:06.122Z,1.67
2018-11-21T16:35:34.821Z,1.64
